sensor_id;sensor_type;location;lat;lon;timestamp;pressure;altitude;pressure_sealevel;temperature;humidity
3102;BME280;1561;42.666;23.392;2022-08-04T00:01:50;95388.00;;;18.02;100.00
3102;BME280;1561;42.666;23.392;2022-08-04T00:04:28;95370.22;;;17.99;100.00
3102;BME280;1561;42.666;23.392;2022-08-04T00:07:04;95377.19;;;17.98;100.00
3102;BME280;1561;42.666;23.392;2022-08-04T00:09:41;95378.97;;;17.90;100.00
3102;BME280;1561;42.666;23.392;2022-08-04T00:12:11;95385.41;;;17.78;100.00
3102;BME280;1561;42.666;23.392;2022-08-04T00:14:49;95379.78;;;17.74;100.00
3102;BME280;1561;42.666;23.392;2022-08-04T00:17:26;95383.97;;;17.75;100.00
3102;BME280;1561;42.666;23.392;2022-08-04T00:20:01;95383.50;;;17.88;100.00
3102;BME280;1561;42.666;23.392;2022-08-04T00:22:30;95375.22;;;17.92;100.00
3102;BME280;1561;42.666;23.392;2022-08-04T00:25:03;95381.53;;;17.90;100.00
3102;BME280;1561;42.666;23.392;2022-08-04T00:27:33;95373.63;;;17.91;100.00
3102;BME280;1561;42.666;23.392;2022-08-04T00:30:11;95367.31;;;17.86;100.00
3102;BME280;1561;42.666;23.392;2022-08-04T00:32:48;95311.19;;;17.40;100.00
3102;BME280;1561;42.666;23.392;2022-08-04T00:35:41;95381.38;;;17.75;100.00
3102;BME280;1561;42.666;23.392;2022-08-04T00:38:35;95378.31;;;17.88;100.00
3102;BME280;1561;42.666;23.392;2022-08-04T00:41:26;95380.59;;;17.75;100.00
3102;BME280;1561;42.666;23.392;2022-08-04T00:44:22;95383.50;;;17.72;100.00
3102;BME280;1561;42.666;23.392;2022-08-04T00:47:41;95382.88;;;17.62;100.00
3102;BME280;1561;42.666;23.392;2022-08-04T00:50:22;95390.59;;;17.86;100.00
3102;BME280;1561;42.666;23.392;2022-08-04T00:53:11;95360.09;;;17.65;100.00
3102;BME280;1561;42.666;23.392;2022-08-04T00:56:07;95384.78;;;17.76;100.00
3102;BME280;1561;42.666;23.392;2022-08-04T00:59:07;95378.31;;;17.88;100.00
3102;BME280;1561;42.666;23.392;2022-08-04T01:01:58;95395.44;;;17.97;100.00
3102;BME280;1561;42.666;23.392;2022-08-04T01:04:55;95395.75;;;17.78;100.00
3102;BME280;1561;42.666;23.392;2022-08-04T01:07:59;95390.78;;;17.76;100.00
3102;BME280;1561;42.666;23.392;2022-08-04T01:10:51;95392.22;;;17.71;100.00
3102;BME280;1561;42.666;23.392;2022-08-04T01:16:59;95395.41;;;17.33;100.00
3102;BME280;1561;42.666;23.392;2022-08-04T01:20:05;95389.63;;;17.39;100.00
3102;BME280;1561;42.666;23.392;2022-08-04T01:29:16;95392.88;;;17.49;100.00
3102;BME280;1561;42.666;23.392;2022-08-04T01:32:00;95390.44;;;17.79;100.00
3102;BME280;1561;42.666;23.392;2022-08-04T01:34:41;95387.72;;;17.65;100.00
3102;BME280;1561;42.666;23.392;2022-08-04T01:37:34;95388.03;;;17.70;100.00
3102;BME280;1561;42.666;23.392;2022-08-04T01:40:18;95364.94;;;17.60;100.00
3102;BME280;1561;42.666;23.392;2022-08-04T01:42:57;95390.13;;;17.42;100.00
3102;BME280;1561;42.666;23.392;2022-08-04T01:46:02;95365.06;;;17.27;100.00
3102;BME280;1561;42.666;23.392;2022-08-04T01:49:04;95396.28;;;17.41;100.00
3102;BME280;1561;42.666;23.392;2022-08-04T01:51:38;95346.03;;;17.12;100.00
3102;BME280;1561;42.666;23.392;2022-08-04T01:54:10;95381.41;;;17.43;100.00
3102;BME280;1561;42.666;23.392;2022-08-04T01:56:51;95331.31;;;17.12;100.00
3102;BME280;1561;42.666;23.392;2022-08-04T01:59:26;95362.78;;;17.24;100.00
3102;BME280;1561;42.666;23.392;2022-08-04T02:02:21;95394.47;;;17.34;100.00
3102;BME280;1561;42.666;23.392;2022-08-04T02:04:52;95378.13;;;17.25;100.00
3102;BME280;1561;42.666;23.392;2022-08-04T02:10:28;95361.94;;;16.91;100.00
3102;BME280;1561;42.666;23.392;2022-08-04T02:13:22;95385.06;;;17.33;100.00
3102;BME280;1561;42.666;23.392;2022-08-04T02:15:58;95383.38;;;17.49;100.00
3102;BME280;1561;42.666;23.392;2022-08-04T02:18:59;95383.69;;;17.46;100.00
3102;BME280;1561;42.666;23.392;2022-08-04T02:21:46;95386.19;;;17.22;100.00
3102;BME280;1561;42.666;23.392;2022-08-04T02:24:27;95374.72;;;17.25;100.00
3102;BME280;1561;42.666;23.392;2022-08-04T02:27:10;95383.78;;;17.13;100.00
3102;BME280;1561;42.666;23.392;2022-08-04T02:29:57;95387.00;;;17.15;100.00
3102;BME280;1561;42.666;23.392;2022-08-04T02:32:32;95338.38;;;16.78;100.00
3102;BME280;1561;42.666;23.392;2022-08-04T02:38:55;95374.84;;;16.83;100.00
3102;BME280;1561;42.666;23.392;2022-08-04T02:41:39;95391.47;;;16.97;100.00
3102;BME280;1561;42.666;23.392;2022-08-04T02:44:27;95386.97;;;17.07;100.00
3102;BME280;1561;42.666;23.392;2022-08-04T02:47:07;95372.63;;;16.96;100.00
3102;BME280;1561;42.666;23.392;2022-08-04T02:50:00;95390.34;;;16.99;100.00
3102;BME280;1561;42.666;23.392;2022-08-04T02:52:43;95384.22;;;17.00;100.00
3102;BME280;1561;42.666;23.392;2022-08-04T02:55:31;95391.97;;;17.00;100.00
3102;BME280;1561;42.666;23.392;2022-08-04T02:58:03;95389.72;;;17.13;100.00
3102;BME280;1561;42.666;23.392;2022-08-04T03:01:09;95389.72;;;17.13;100.00
3102;BME280;1561;42.666;23.392;2022-08-04T03:03:47;95386.00;;;17.16;100.00
3102;BME280;1561;42.666;23.392;2022-08-04T03:06:52;95393.09;;;16.90;100.00
3102;BME280;1561;42.666;23.392;2022-08-04T03:46:08;95393.84;;;17.40;100.00
3102;BME280;1561;42.666;23.392;2022-08-04T03:59:32;95377.84;;;17.60;100.00
3102;BME280;1561;42.666;23.392;2022-08-04T04:09:44;95366.53;;;19.62;100.00
3102;BME280;1561;42.666;23.392;2022-08-04T04:16:28;95388.34;;;19.90;100.00
3102;BME280;1561;42.666;23.392;2022-08-04T04:19:25;95387.75;;;20.75;100.00
3102;BME280;1561;42.666;23.392;2022-08-04T04:32:09;95389.47;;;20.53;100.00
3102;BME280;1561;42.666;23.392;2022-08-04T04:38:43;95394.22;;;20.35;100.00
3102;BME280;1561;42.666;23.392;2022-08-04T04:42:17;95393.06;;;20.96;100.00
3102;BME280;1561;42.666;23.392;2022-08-04T04:45:14;95392.50;;;21.00;100.00
3102;BME280;1561;42.666;23.392;2022-08-04T04:48:08;95407.03;;;20.00;100.00
3102;BME280;1561;42.666;23.392;2022-08-04T04:50:53;95397.97;;;20.62;100.00
3102;BME280;1561;42.666;23.392;2022-08-04T04:53:49;95403.00;;;20.34;100.00
3102;BME280;1561;42.666;23.392;2022-08-04T04:56:33;95350.97;;;19.17;100.00
3102;BME280;1561;42.666;23.392;2022-08-04T04:59:12;95394.50;;;18.91;100.00
3102;BME280;1561;42.666;23.392;2022-08-04T05:02:22;95402.69;;;19.55;100.00
3102;BME280;1561;42.666;23.392;2022-08-04T05:08:33;95400.28;;;20.86;100.00
3102;BME280;1561;42.666;23.392;2022-08-04T05:11:29;95406.75;;;20.46;100.00
3102;BME280;1561;42.666;23.392;2022-08-04T05:14:09;95411.66;;;20.56;100.00
3102;BME280;1561;42.666;23.392;2022-08-04T05:16:50;95412.03;;;20.53;100.00
3102;BME280;1561;42.666;23.392;2022-08-04T05:19:41;95412.56;;;20.34;100.00
3102;BME280;1561;42.666;23.392;2022-08-04T05:22:39;95398.25;;;20.96;100.00
3102;BME280;1561;42.666;23.392;2022-08-04T05:25:20;95387.28;;;21.99;100.00
3102;BME280;1561;42.666;23.392;2022-08-04T05:28:09;95392.09;;;22.57;100.00
3102;BME280;1561;42.666;23.392;2022-08-04T05:30:40;95399.78;;;21.68;100.00
3102;BME280;1561;42.666;23.392;2022-08-04T05:33:33;95332.50;;;22.88;100.00
3102;BME280;1561;42.666;23.392;2022-08-04T05:36:17;95393.91;;;24.22;100.00
3102;BME280;1561;42.666;23.392;2022-08-04T05:38:58;95397.97;;;24.95;100.00
3102;BME280;1561;42.666;23.392;2022-08-04T05:41:35;95393.16;;;26.29;89.97
3102;BME280;1561;42.666;23.392;2022-08-04T05:44:10;95396.31;;;26.13;95.19
3102;BME280;1561;42.666;23.392;2022-08-04T05:47:04;95407.38;;;27.00;89.92
3102;BME280;1561;42.666;23.392;2022-08-04T05:49:34;95403.28;;;24.75;100.00
3102;BME280;1561;42.666;23.392;2022-08-04T05:52:10;95409.16;;;24.25;100.00
3102;BME280;1561;42.666;23.392;2022-08-04T05:54:41;95406.22;;;23.29;100.00
3102;BME280;1561;42.666;23.392;2022-08-04T05:57:09;95405.75;;;25.14;100.00
3102;BME280;1561;42.666;23.392;2022-08-04T05:59:39;95413.25;;;26.77;92.77
3102;BME280;1561;42.666;23.392;2022-08-04T06:02:13;95405.19;;;25.50;100.00
3102;BME280;1561;42.666;23.392;2022-08-04T06:04:42;95408.91;;;26.47;94.74
3102;BME280;1561;42.666;23.392;2022-08-04T06:07:17;95410.84;;;26.33;97.03
3102;BME280;1561;42.666;23.392;2022-08-04T06:09:54;95394.63;;;25.69;99.23
3102;BME280;1561;42.666;23.392;2022-08-04T06:12:35;95409.75;;;25.92;100.00
3102;BME280;1561;42.666;23.392;2022-08-04T06:15:10;95407.22;;;28.13;79.77
3102;BME280;1561;42.666;23.392;2022-08-04T06:17:47;95400.28;;;28.99;75.12
3102;BME280;1561;42.666;23.392;2022-08-04T06:20:20;95391.63;;;29.27;71.78
3102;BME280;1561;42.666;23.392;2022-08-04T06:22:51;95394.66;;;28.84;74.05
3102;BME280;1561;42.666;23.392;2022-08-04T06:25:27;95409.66;;;26.72;89.34
3102;BME280;1561;42.666;23.392;2022-08-04T06:27:57;95406.22;;;26.53;92.29
3102;BME280;1561;42.666;23.392;2022-08-04T06:30:26;95407.72;;;27.21;86.41
3102;BME280;1561;42.666;23.392;2022-08-04T06:33:07;95406.25;;;26.04;98.18
3102;BME280;1561;42.666;23.392;2022-08-04T06:35:51;95407.34;;;27.18;91.98
3102;BME280;1561;42.666;23.392;2022-08-04T06:38:23;95417.84;;;26.64;97.31
3102;BME280;1561;42.666;23.392;2022-08-04T06:40:58;95405.63;;;27.30;92.06
3102;BME280;1561;42.666;23.392;2022-08-04T06:43:34;95415.00;;;26.16;100.00
3102;BME280;1561;42.666;23.392;2022-08-04T06:46:03;95352.13;;;25.98;97.63
3102;BME280;1561;42.666;23.392;2022-08-04T06:48:35;95410.59;;;25.86;100.00
3102;BME280;1561;42.666;23.392;2022-08-04T06:51:04;95413.88;;;24.93;100.00
3102;BME280;1561;42.666;23.392;2022-08-04T06:53:32;95424.06;;;25.08;100.00
3102;BME280;1561;42.666;23.392;2022-08-04T06:56:01;95402.84;;;24.85;100.00
3102;BME280;1561;42.666;23.392;2022-08-04T06:58:32;95415.16;;;24.58;100.00
3102;BME280;1561;42.666;23.392;2022-08-04T07:01:00;95420.59;;;23.85;100.00
3102;BME280;1561;42.666;23.392;2022-08-04T07:03:30;95424.66;;;25.60;100.00
3102;BME280;1561;42.666;23.392;2022-08-04T07:06:00;95421.56;;;25.70;100.00
3102;BME280;1561;42.666;23.392;2022-08-04T07:08:31;95408.22;;;25.78;100.00
3102;BME280;1561;42.666;23.392;2022-08-04T07:11:05;95421.41;;;24.64;100.00
3102;BME280;1561;42.666;23.392;2022-08-04T07:13:36;95419.31;;;25.80;100.00
3102;BME280;1561;42.666;23.392;2022-08-04T07:16:17;95394.72;;;25.50;100.00
3102;BME280;1561;42.666;23.392;2022-08-04T07:18:46;95412.66;;;26.57;100.00
3102;BME280;1561;42.666;23.392;2022-08-04T07:21:21;95412.97;;;26.43;100.00
3102;BME280;1561;42.666;23.392;2022-08-04T07:23:53;95402.97;;;29.83;74.08
3102;BME280;1561;42.666;23.392;2022-08-04T07:26:27;95397.56;;;28.82;80.96
3102;BME280;1561;42.666;23.392;2022-08-04T07:28:57;95396.22;;;30.37;69.96
3102;BME280;1561;42.666;23.392;2022-08-04T07:31:27;95397.41;;;29.40;76.05
3102;BME280;1561;42.666;23.392;2022-08-04T07:33:58;95402.44;;;29.42;74.49
3102;BME280;1561;42.666;23.392;2022-08-04T07:36:28;95393.78;;;28.78;79.37
3102;BME280;1561;42.666;23.392;2022-08-04T07:38:58;95382.06;;;25.78;100.00
3102;BME280;1561;42.666;23.392;2022-08-04T07:41:31;95401.31;;;26.39;100.00
3102;BME280;1561;42.666;23.392;2022-08-04T07:44:00;95308.13;;;26.07;99.66
3102;BME280;1561;42.666;23.392;2022-08-04T07:46:29;95312.84;;;25.98;100.00
3102;BME280;1561;42.666;23.392;2022-08-04T07:48:59;95395.09;;;25.84;100.00
3102;BME280;1561;42.666;23.392;2022-08-04T07:51:31;95400.59;;;26.50;99.68
3102;BME280;1561;42.666;23.392;2022-08-04T07:54:02;95392.56;;;26.87;97.73
3102;BME280;1561;42.666;23.392;2022-08-04T07:56:38;95394.81;;;26.66;98.47
3102;BME280;1561;42.666;23.392;2022-08-04T07:59:05;95401.34;;;25.83;100.00
3102;BME280;1561;42.666;23.392;2022-08-04T08:01:39;95395.13;;;26.09;100.00
3102;BME280;1561;42.666;23.392;2022-08-04T08:04:08;95401.25;;;26.03;100.00
3102;BME280;1561;42.666;23.392;2022-08-04T08:06:38;95394.41;;;26.69;100.00
3102;BME280;1561;42.666;23.392;2022-08-04T08:09:13;95392.31;;;27.43;93.35
3102;BME280;1561;42.666;23.392;2022-08-04T08:11:48;95396.25;;;27.16;93.58
3102;BME280;1561;42.666;23.392;2022-08-04T08:14:34;95394.41;;;27.93;88.51
3102;BME280;1561;42.666;23.392;2022-08-04T08:17:02;95384.91;;;29.47;76.21
3102;BME280;1561;42.666;23.392;2022-08-04T08:19:36;95381.34;;;31.50;62.96
3102;BME280;1561;42.666;23.392;2022-08-04T08:22:03;95387.16;;;31.25;63.23
3102;BME280;1561;42.666;23.392;2022-08-04T08:24:33;95340.34;;;29.74;70.03
3102;BME280;1561;42.666;23.392;2022-08-04T08:27:05;95391.25;;;31.86;60.17
3102;BME280;1561;42.666;23.392;2022-08-04T08:29:33;95386.66;;;33.27;53.49
3102;BME280;1561;42.666;23.392;2022-08-04T08:32:09;95386.88;;;33.16;50.44
3102;BME280;1561;42.666;23.392;2022-08-04T08:34:39;95387.88;;;33.05;52.71
3102;BME280;1561;42.666;23.392;2022-08-04T08:37:14;95384.47;;;34.26;48.52
3102;BME280;1561;42.666;23.392;2022-08-04T08:39:49;95384.16;;;31.91;56.50
3102;BME280;1561;42.666;23.392;2022-08-04T08:42:44;95394.84;;;32.33;54.78
3102;BME280;1561;42.666;23.392;2022-08-04T08:45:40;95386.31;;;32.67;50.38
3102;BME280;1561;42.666;23.392;2022-08-04T08:48:39;95382.34;;;32.65;48.65
3102;BME280;1561;42.666;23.392;2022-08-04T08:54:55;95370.91;;;34.27;41.87
3102;BME280;1561;42.666;23.392;2022-08-04T08:57:48;95387.91;;;34.26;41.14
3102;BME280;1561;42.666;23.392;2022-08-04T09:00:29;95383.06;;;33.73;44.22
3102;BME280;1561;42.666;23.392;2022-08-04T09:03:34;95375.38;;;34.72;42.85
3102;BME280;1561;42.666;23.392;2022-08-04T09:06:40;95374.81;;;33.50;45.82
3102;BME280;1561;42.666;23.392;2022-08-04T09:09:32;95368.75;;;33.69;46.19
3102;BME280;1561;42.666;23.392;2022-08-04T09:12:17;95373.28;;;33.79;45.36
3102;BME280;1561;42.666;23.392;2022-08-04T09:15:02;95369.91;;;33.17;47.49
3102;BME280;1561;42.666;23.392;2022-08-04T09:17:34;95366.44;;;33.11;46.34
3102;BME280;1561;42.666;23.392;2022-08-04T09:20:18;95358.75;;;34.36;43.56
3102;BME280;1561;42.666;23.392;2022-08-04T09:23:03;95359.06;;;33.13;46.39
3102;BME280;1561;42.666;23.392;2022-08-04T09:25:42;95356.81;;;32.85;48.08
3102;BME280;1561;42.666;23.392;2022-08-04T09:28:25;95358.78;;;32.63;48.88
3102;BME280;1561;42.666;23.392;2022-08-04T09:31:11;95358.13;;;33.54;46.91
3102;BME280;1561;42.666;23.392;2022-08-04T09:33:47;95356.81;;;32.44;47.62
3102;BME280;1561;42.666;23.392;2022-08-04T09:36:36;95354.22;;;34.42;42.57
3102;BME280;1561;42.666;23.392;2022-08-04T09:39:16;95349.53;;;35.03;41.07
3102;BME280;1561;42.666;23.392;2022-08-04T09:42:00;95350.41;;;34.78;38.40
3102;BME280;1561;42.666;23.392;2022-08-04T09:44:54;95339.47;;;35.00;36.27
3102;BME280;1561;42.666;23.392;2022-08-04T09:47:37;95351.50;;;34.72;38.06
3102;BME280;1561;42.666;23.392;2022-08-04T09:50:27;95346.72;;;34.69;37.47
3102;BME280;1561;42.666;23.392;2022-08-04T09:53:15;95349.06;;;35.54;36.64
3102;BME280;1561;42.666;23.392;2022-08-04T09:56:08;95351.75;;;34.91;37.41
3102;BME280;1561;42.666;23.392;2022-08-04T09:58:53;95336.34;;;34.88;38.65
3102;BME280;1561;42.666;23.392;2022-08-04T10:01:31;95307.25;;;33.77;40.24
3102;BME280;1561;42.666;23.392;2022-08-04T10:04:11;95342.88;;;33.15;41.88
3102;BME280;1561;42.666;23.392;2022-08-04T10:07:18;95357.44;;;31.88;44.90
3102;BME280;1561;42.666;23.392;2022-08-04T10:10:02;95352.78;;;31.73;45.06
3102;BME280;1561;42.666;23.392;2022-08-04T10:12:47;95349.34;;;33.34;42.50
3102;BME280;1561;42.666;23.392;2022-08-04T10:15:30;95339.47;;;33.24;42.12
3102;BME280;1561;42.666;23.392;2022-08-04T10:18:22;95291.81;;;33.29;42.91
3102;BME280;1561;42.666;23.392;2022-08-04T10:21:15;95336.38;;;33.37;41.92
3102;BME280;1561;42.666;23.392;2022-08-04T10:24:00;95350.13;;;31.20;46.55
3102;BME280;1561;42.666;23.392;2022-08-04T10:26:46;95321.69;;;31.06;46.82
3102;BME280;1561;42.666;23.392;2022-08-04T10:29:20;95341.16;;;31.74;44.45
3102;BME280;1561;42.666;23.392;2022-08-04T10:31:56;95335.47;;;32.19;42.92
3102;BME280;1561;42.666;23.392;2022-08-04T10:34:45;95330.88;;;32.82;39.51
3102;BME280;1561;42.666;23.392;2022-08-04T10:37:23;95339.97;;;31.87;42.08
3102;BME280;1561;42.666;23.392;2022-08-04T10:39:57;95334.84;;;31.22;42.72
3102;BME280;1561;42.666;23.392;2022-08-04T10:43:10;95330.25;;;30.70;42.73
3102;BME280;1561;42.666;23.392;2022-08-04T10:45:41;95315.81;;;32.46;40.08
3102;BME280;1561;42.666;23.392;2022-08-04T10:48:19;95325.00;;;33.62;36.21
3102;BME280;1561;42.666;23.392;2022-08-04T10:51:14;95315.91;;;33.28;35.92
3102;BME280;1561;42.666;23.392;2022-08-04T10:53:56;95313.31;;;34.58;35.77
3102;BME280;1561;42.666;23.392;2022-08-04T10:56:33;95305.66;;;34.41;34.46
3102;BME280;1561;42.666;23.392;2022-08-04T10:59:09;95313.53;;;35.35;32.53
3102;BME280;1561;42.666;23.392;2022-08-04T11:01:43;95297.22;;;35.57;30.47
3102;BME280;1561;42.666;23.392;2022-08-04T11:04:16;95300.75;;;35.42;30.44
3102;BME280;1561;42.666;23.392;2022-08-04T11:06:49;95300.28;;;35.25;30.66
3102;BME280;1561;42.666;23.392;2022-08-04T11:09:22;95289.97;;;34.50;29.29
3102;BME280;1561;42.666;23.392;2022-08-04T11:12:04;95296.09;;;33.65;29.74
3102;BME280;1561;42.666;23.392;2022-08-04T11:14:43;95304.22;;;32.11;33.78
3102;BME280;1561;42.666;23.392;2022-08-04T11:17:20;95288.63;;;33.22;31.64
3102;BME280;1561;42.666;23.392;2022-08-04T11:19:56;95293.22;;;33.97;31.00
3102;BME280;1561;42.666;23.392;2022-08-04T11:22:27;95288.97;;;33.46;29.74
3102;BME280;1561;42.666;23.392;2022-08-04T11:25:12;95278.06;;;33.32;29.68
3102;BME280;1561;42.666;23.392;2022-08-04T11:28:07;95287.66;;;33.58;30.79
3102;BME280;1561;42.666;23.392;2022-08-04T11:33:35;95294.34;;;32.01;32.96
3102;BME280;1561;42.666;23.392;2022-08-04T11:36:13;95283.44;;;31.30;34.77
3102;BME280;1561;42.666;23.392;2022-08-04T11:39:17;95291.75;;;30.95;35.39
3102;BME280;1561;42.666;23.392;2022-08-04T11:41:56;95283.03;;;32.42;33.19
3102;BME280;1561;42.666;23.392;2022-08-04T11:44:30;95278.81;;;33.23;31.72
3102;BME280;1561;42.666;23.392;2022-08-04T11:47:02;95275.00;;;32.32;32.38
3102;BME280;1561;42.666;23.392;2022-08-04T11:49:40;95288.72;;;31.61;34.21
3102;BME280;1561;42.666;23.392;2022-08-04T11:52:11;95280.28;;;31.33;35.17
3102;BME280;1561;42.666;23.392;2022-08-04T11:54:40;95291.22;;;30.93;35.92
3102;BME280;1561;42.666;23.392;2022-08-04T11:57:13;95266.50;;;31.57;36.03
3102;BME280;1561;42.666;23.392;2022-08-04T11:59:40;95277.38;;;31.61;35.09
3102;BME280;1561;42.666;23.392;2022-08-04T12:02:36;95275.63;;;32.08;34.22
3102;BME280;1561;42.666;23.392;2022-08-04T12:05:12;95243.84;;;31.98;33.68
3102;BME280;1561;42.666;23.392;2022-08-04T12:08:17;95254.84;;;32.21;34.70
3102;BME280;1561;42.666;23.392;2022-08-04T12:11:03;95278.81;;;33.23;32.06
3102;BME280;1561;42.666;23.392;2022-08-04T12:13:47;95273.34;;;32.68;32.65
3102;BME280;1561;42.666;23.392;2022-08-04T12:16:20;95271.84;;;32.35;32.83
3102;BME280;1561;42.666;23.392;2022-08-04T12:19:00;95265.28;;;32.43;33.02
3102;BME280;1561;42.666;23.392;2022-08-04T12:21:32;95276.78;;;31.80;33.44
3102;BME280;1561;42.666;23.392;2022-08-04T12:24:05;95229.47;;;32.25;33.07
3102;BME280;1561;42.666;23.392;2022-08-04T12:26:38;95274.31;;;32.52;33.65
3102;BME280;1561;42.666;23.392;2022-08-04T12:29:15;95264.22;;;32.95;32.10
3102;BME280;1561;42.666;23.392;2022-08-04T12:31:46;95256.34;;;32.07;34.36
3102;BME280;1561;42.666;23.392;2022-08-04T12:34:24;95279.66;;;31.52;34.90
3102;BME280;1561;42.666;23.392;2022-08-04T12:37:00;95274.13;;;31.01;35.46
3102;BME280;1561;42.666;23.392;2022-08-04T12:39:31;95255.44;;;31.60;35.13
3102;BME280;1561;42.666;23.392;2022-08-04T12:42:03;95266.19;;;32.22;34.77
3102;BME280;1561;42.666;23.392;2022-08-04T12:44:39;95242.53;;;32.00;34.67
3102;BME280;1561;42.666;23.392;2022-08-04T12:47:23;95252.44;;;31.78;35.23
3102;BME280;1561;42.666;23.392;2022-08-04T12:50:00;95263.31;;;31.87;36.30
3102;BME280;1561;42.666;23.392;2022-08-04T12:52:49;95250.41;;;31.59;35.40
3102;BME280;1561;42.666;23.392;2022-08-04T12:55:21;95255.13;;;31.88;34.80
3102;BME280;1561;42.666;23.392;2022-08-04T12:57:51;95248.50;;;32.27;34.38
3102;BME280;1561;42.666;23.392;2022-08-04T13:00:26;95204.66;;;31.53;34.92
3102;BME280;1561;42.666;23.392;2022-08-04T13:02:59;95247.69;;;31.49;35.37
3102;BME280;1561;42.666;23.392;2022-08-04T13:05:31;95195.44;;;30.98;35.34
3102;BME280;1561;42.666;23.392;2022-08-04T13:08:00;95244.09;;;31.28;35.39
3102;BME280;1561;42.666;23.392;2022-08-04T13:10:37;95226.97;;;31.36;35.73
3102;BME280;1561;42.666;23.392;2022-08-04T13:13:13;95244.84;;;31.55;35.53
3102;BME280;1561;42.666;23.392;2022-08-04T13:15:53;95237.69;;;31.56;35.81
3102;BME280;1561;42.666;23.392;2022-08-04T13:18:26;95246.28;;;31.15;36.37
3102;BME280;1561;42.666;23.392;2022-08-04T13:21:13;95243.44;;;31.43;36.53
3102;BME280;1561;42.666;23.392;2022-08-04T13:23:44;95181.69;;;31.54;35.45
3102;BME280;1561;42.666;23.392;2022-08-04T13:26:16;95235.00;;;32.24;35.06
3102;BME280;1561;42.666;23.392;2022-08-04T13:28:47;95236.19;;;32.01;34.60
3102;BME280;1561;42.666;23.392;2022-08-04T13:31:26;95239.97;;;31.74;36.17
3102;BME280;1561;42.666;23.392;2022-08-04T13:34:02;95232.84;;;32.16;34.41
3102;BME280;1561;42.666;23.392;2022-08-04T13:36:33;95230.53;;;32.81;34.61
3102;BME280;1561;42.666;23.392;2022-08-04T13:39:06;95227.41;;;32.37;34.67
3102;BME280;1561;42.666;23.392;2022-08-04T13:41:37;95224.19;;;32.25;34.83
3102;BME280;1561;42.666;23.392;2022-08-04T13:44:08;95218.44;;;31.92;35.40
3102;BME280;1561;42.666;23.392;2022-08-04T13:46:45;95222.94;;;32.43;35.60
3102;BME280;1561;42.666;23.392;2022-08-04T13:49:16;95222.38;;;32.31;35.41
3102;BME280;1561;42.666;23.392;2022-08-04T13:51:51;95224.44;;;32.24;34.50
3102;BME280;1561;42.666;23.392;2022-08-04T13:54:21;95209.03;;;32.11;34.47
3102;BME280;1561;42.666;23.392;2022-08-04T13:56:56;95219.88;;;31.36;35.30
3102;BME280;1561;42.666;23.392;2022-08-04T13:59:33;95209.09;;;31.16;35.68
3102;BME280;1561;42.666;23.392;2022-08-04T14:02:24;95213.53;;;31.74;35.18
3102;BME280;1561;42.666;23.392;2022-08-04T14:04:54;95202.16;;;31.37;35.52
3102;BME280;1561;42.666;23.392;2022-08-04T14:07:33;95207.16;;;31.70;34.88
3102;BME280;1561;42.666;23.392;2022-08-04T14:10:10;95195.34;;;31.77;34.09
3102;BME280;1561;42.666;23.392;2022-08-04T14:12:51;95190.09;;;31.82;34.24
3102;BME280;1561;42.666;23.392;2022-08-04T14:15:32;95201.16;;;31.79;35.15
3102;BME280;1561;42.666;23.392;2022-08-04T14:18:24;95195.50;;;31.66;35.43
3102;BME280;1561;42.666;23.392;2022-08-04T14:21:01;95194.56;;;31.82;35.83
3102;BME280;1561;42.666;23.392;2022-08-04T14:23:36;95184.03;;;31.87;35.64
3102;BME280;1561;42.666;23.392;2022-08-04T14:26:13;95196.06;;;32.09;35.58
3102;BME280;1561;42.666;23.392;2022-08-04T14:28:40;95179.56;;;31.87;35.42
3102;BME280;1561;42.666;23.392;2022-08-04T14:31:11;95196.13;;;30.83;37.68
3102;BME280;1561;42.666;23.392;2022-08-04T14:33:41;95197.09;;;30.56;39.00
3102;BME280;1561;42.666;23.392;2022-08-04T14:36:18;95188.41;;;30.77;38.65
3102;BME280;1561;42.666;23.392;2022-08-04T14:38:53;95193.13;;;30.53;38.40
3102;BME280;1561;42.666;23.392;2022-08-04T14:41:26;95192.97;;;30.43;39.39
3102;BME280;1561;42.666;23.392;2022-08-04T14:43:55;95190.81;;;30.35;40.22
3102;BME280;1561;42.666;23.392;2022-08-04T14:46:27;95178.41;;;30.84;38.95
3102;BME280;1561;42.666;23.392;2022-08-04T14:49:22;95184.25;;;31.44;38.36
3102;BME280;1561;42.666;23.392;2022-08-04T14:51:55;95187.91;;;31.38;37.28
3102;BME280;1561;42.666;23.392;2022-08-04T14:54:38;95195.19;;;30.99;38.84
3102;BME280;1561;42.666;23.392;2022-08-04T14:57:08;95170.13;;;30.27;37.05
3102;BME280;1561;42.666;23.392;2022-08-04T14:59:43;95146.94;;;30.08;37.08
3102;BME280;1561;42.666;23.392;2022-08-04T15:02:20;95186.19;;;30.47;35.72
3102;BME280;1561;42.666;23.392;2022-08-04T15:04:49;95181.72;;;30.26;36.33
3102;BME280;1561;42.666;23.392;2022-08-04T15:07:17;95178.81;;;30.71;35.92
3102;BME280;1561;42.666;23.392;2022-08-04T15:09:44;95178.38;;;30.79;34.85
3102;BME280;1561;42.666;23.392;2022-08-04T15:12:23;95171.22;;;30.53;34.84
3102;BME280;1561;42.666;23.392;2022-08-04T15:14:56;95182.13;;;30.61;35.31
3102;BME280;1561;42.666;23.392;2022-08-04T15:17:26;95180.38;;;30.45;35.78
3102;BME280;1561;42.666;23.392;2022-08-04T15:19:59;95173.75;;;30.43;35.70
3102;BME280;1561;42.666;23.392;2022-08-04T15:22:28;95179.69;;;30.33;36.38
3102;BME280;1561;42.666;23.392;2022-08-04T15:24:58;95177.16;;;30.00;37.63
3102;BME280;1561;42.666;23.392;2022-08-04T15:27:29;95140.81;;;29.48;37.51
3102;BME280;1561;42.666;23.392;2022-08-04T15:30:01;95174.31;;;29.85;38.64
3102;BME280;1561;42.666;23.392;2022-08-04T15:32:29;95172.28;;;30.30;38.00
3102;BME280;1561;42.666;23.392;2022-08-04T15:35:03;95167.38;;;30.17;37.82
3102;BME280;1561;42.666;23.392;2022-08-04T15:37:44;95165.84;;;30.43;37.56
3102;BME280;1561;42.666;23.392;2022-08-04T15:40:18;95173.91;;;30.58;37.83
3102;BME280;1561;42.666;23.392;2022-08-04T15:42:59;95164.44;;;30.62;37.88
3102;BME280;1561;42.666;23.392;2022-08-04T15:45:40;95155.81;;;30.66;37.50
3102;BME280;1561;42.666;23.392;2022-08-04T15:48:25;95178.63;;;30.56;38.71
3102;BME280;1561;42.666;23.392;2022-08-04T15:51:23;95179.41;;;30.56;39.18
3102;BME280;1561;42.666;23.392;2022-08-04T15:54:20;95177.06;;;30.55;39.81